sensor_id;sensor_type;location;lat;lon;timestamp;P1;durP1;ratioP1;P2;durP2;ratioP2
38787;SDS011;24536;45.488;12.238;2022-10-16T00:00:31;44.75;;;33.05;;
38787;SDS011;24536;45.488;12.238;2022-10-16T00:02:57;41.50;;;29.80;;
38787;SDS011;24536;45.488;12.238;2022-10-16T00:05:23;44.38;;;28.85;;
38787;SDS011;24536;45.488;12.238;2022-10-16T00:07:48;45.33;;;31.63;;
38787;SDS011;24536;45.488;12.238;2022-10-16T00:10:14;47.40;;;32.97;;
38787;SDS011;24536;45.488;12.238;2022-10-16T00:12:40;45.58;;;32.03;;
38787;SDS011;24536;45.488;12.238;2022-10-16T00:15:06;42.15;;;29.25;;
38787;SDS011;24536;45.488;12.238;2022-10-16T00:17:32;42.10;;;29.80;;
38787;SDS011;24536;45.488;12.238;2022-10-16T00:19:58;41.47;;;30.08;;
38787;SDS011;24536;45.488;12.238;2022-10-16T00:22:23;43.65;;;31.55;;
38787;SDS011;24536;45.488;12.238;2022-10-16T00:24:49;42.55;;;31.10;;
38787;SDS011;24536;45.488;12.238;2022-10-16T00:27:15;45.55;;;32.28;;
38787;SDS011;24536;45.488;12.238;2022-10-16T00:29:41;40.10;;;29.40;;
38787;SDS011;24536;45.488;12.238;2022-10-16T00:32:07;43.33;;;32.40;;
38787;SDS011;24536;45.488;12.238;2022-10-16T00:34:33;44.55;;;31.85;;
38787;SDS011;24536;45.488;12.238;2022-10-16T00:36:59;42.72;;;30.02;;
38787;SDS011;24536;45.488;12.238;2022-10-16T00:39:25;44.13;;;29.80;;
38787;SDS011;24536;45.488;12.238;2022-10-16T00:41:50;40.75;;;30.88;;
38787;SDS011;24536;45.488;12.238;2022-10-16T00:47:08;46.25;;;31.23;;
38787;SDS011;24536;45.488;12.238;2022-10-16T00:49:35;42.65;;;30.50;;
38787;SDS011;24536;45.488;12.238;2022-10-16T00:52:01;42.65;;;29.85;;
38787;SDS011;24536;45.488;12.238;2022-10-16T00:54:28;43.03;;;29.38;;
38787;SDS011;24536;45.488;12.238;2022-10-16T00:56:56;40.83;;;30.73;;
38787;SDS011;24536;45.488;12.238;2022-10-16T00:59:27;42.33;;;29.10;;
38787;SDS011;24536;45.488;12.238;2022-10-16T01:02:01;43.67;;;30.20;;
38787;SDS011;24536;45.488;12.238;2022-10-16T01:04:31;44.25;;;29.38;;
38787;SDS011;24536;45.488;12.238;2022-10-16T01:07:14;40.85;;;27.90;;
38787;SDS011;24536;45.488;12.238;2022-10-16T01:20:31;48.50;;;33.13;;
38787;SDS011;24536;45.488;12.238;2022-10-16T01:28:55;54.07;;;35.80;;
38787;SDS011;24536;45.488;12.238;2022-10-16T01:34:05;63.83;;;40.97;;
38787;SDS011;24536;45.488;12.238;2022-10-16T01:36:39;69.57;;;43.38;;
38787;SDS011;24536;45.488;12.238;2022-10-16T01:39:18;83.55;;;47.58;;
38787;SDS011;24536;45.488;12.238;2022-10-16T01:41:48;74.07;;;47.08;;
38787;SDS011;24536;45.488;12.238;2022-10-16T01:44:30;76.80;;;48.05;;
38787;SDS011;24536;45.488;12.238;2022-10-16T01:46:58;68.68;;;42.20;;
38787;SDS011;24536;45.488;12.238;2022-10-16T01:49:25;79.25;;;47.17;;
38787;SDS011;24536;45.488;12.238;2022-10-16T01:51:57;75.75;;;48.22;;
38787;SDS011;24536;45.488;12.238;2022-10-16T01:54:26;82.55;;;47.40;;
38787;SDS011;24536;45.488;12.238;2022-10-16T01:56:54;82.85;;;50.42;;
38787;SDS011;24536;45.488;12.238;2022-10-16T01:59:21;77.07;;;45.95;;
38787;SDS011;24536;45.488;12.238;2022-10-16T02:01:52;77.93;;;48.42;;
38787;SDS011;24536;45.488;12.238;2022-10-16T02:04:23;75.40;;;45.20;;
38787;SDS011;24536;45.488;12.238;2022-10-16T02:06:53;74.95;;;48.88;;
38787;SDS011;24536;45.488;12.238;2022-10-16T02:09:19;79.05;;;47.10;;
38787;SDS011;24536;45.488;12.238;2022-10-16T02:11:45;74.07;;;45.80;;
38787;SDS011;24536;45.488;12.238;2022-10-16T02:14:11;76.35;;;47.55;;
38787;SDS011;24536;45.488;12.238;2022-10-16T02:16:39;83.53;;;52.95;;
38787;SDS011;24536;45.488;12.238;2022-10-16T02:19:06;70.53;;;47.45;;
38787;SDS011;24536;45.488;12.238;2022-10-16T02:21:35;82.47;;;49.90;;
38787;SDS011;24536;45.488;12.238;2022-10-16T02:27:11;74.90;;;45.80;;
38787;SDS011;24536;45.488;12.238;2022-10-16T02:29:58;75.10;;;46.63;;
38787;SDS011;24536;45.488;12.238;2022-10-16T02:32:33;72.82;;;45.50;;
38787;SDS011;24536;45.488;12.238;2022-10-16T02:35:00;84.97;;;48.47;;
38787;SDS011;24536;45.488;12.238;2022-10-16T02:37:27;81.10;;;47.40;;
38787;SDS011;24536;45.488;12.238;2022-10-16T02:39:54;74.70;;;46.85;;
38787;SDS011;24536;45.488;12.238;2022-10-16T02:42:27;69.22;;;42.15;;
38787;SDS011;24536;45.488;12.238;2022-10-16T02:44:54;74.90;;;47.40;;
38787;SDS011;24536;45.488;12.238;2022-10-16T02:47:19;78.35;;;48.30;;
38787;SDS011;24536;45.488;12.238;2022-10-16T02:49:45;73.60;;;44.92;;
38787;SDS011;24536;45.488;12.238;2022-10-16T02:52:10;72.30;;;43.90;;
38787;SDS011;24536;45.488;12.238;2022-10-16T02:54:36;66.60;;;42.92;;
38787;SDS011;24536;45.488;12.238;2022-10-16T02:57:02;72.50;;;44.63;;
38787;SDS011;24536;45.488;12.238;2022-10-16T02:59:27;72.55;;;44.55;;
38787;SDS011;24536;45.488;12.238;2022-10-16T03:01:53;71.53;;;45.70;;
38787;SDS011;24536;45.488;12.238;2022-10-16T03:04:19;68.55;;;43.08;;
38787;SDS011;24536;45.488;12.238;2022-10-16T03:06:44;70.47;;;44.00;;
38787;SDS011;24536;45.488;12.238;2022-10-16T03:09:10;76.95;;;45.72;;
38787;SDS011;24536;45.488;12.238;2022-10-16T03:11:36;65.70;;;41.70;;
38787;SDS011;24536;45.488;12.238;2022-10-16T03:14:01;74.45;;;42.85;;
38787;SDS011;24536;45.488;12.238;2022-10-16T03:16:27;76.57;;;44.47;;
38787;SDS011;24536;45.488;12.238;2022-10-16T03:18:53;76.45;;;46.72;;
38787;SDS011;24536;45.488;12.238;2022-10-16T03:21:18;75.15;;;45.28;;
38787;SDS011;24536;45.488;12.238;2022-10-16T03:23:44;74.32;;;44.63;;
38787;SDS011;24536;45.488;12.238;2022-10-16T03:26:10;73.60;;;42.03;;
38787;SDS011;24536;45.488;12.238;2022-10-16T03:28:35;69.70;;;43.78;;
38787;SDS011;24536;45.488;12.238;2022-10-16T03:31:01;75.80;;;45.55;;
38787;SDS011;24536;45.488;12.238;2022-10-16T03:33:27;70.80;;;45.58;;
38787;SDS011;24536;45.488;12.238;2022-10-16T03:35:53;77.03;;;46.47;;
38787;SDS011;24536;45.488;12.238;2022-10-16T03:38:19;71.70;;;43.78;;
38787;SDS011;24536;45.488;12.238;2022-10-16T03:40:46;76.57;;;47.05;;
38787;SDS011;24536;45.488;12.238;2022-10-16T03:43:12;70.95;;;43.47;;
38787;SDS011;24536;45.488;12.238;2022-10-16T03:45:37;69.40;;;44.88;;
38787;SDS011;24536;45.488;12.238;2022-10-16T03:48:03;72.05;;;42.42;;
38787;SDS011;24536;45.488;12.238;2022-10-16T03:50:29;73.93;;;47.20;;
38787;SDS011;24536;45.488;12.238;2022-10-16T03:52:55;75.95;;;47.67;;
38787;SDS011;24536;45.488;12.238;2022-10-16T03:55:20;73.03;;;46.47;;
38787;SDS011;24536;45.488;12.238;2022-10-16T03:57:46;74.22;;;45.70;;
38787;SDS011;24536;45.488;12.238;2022-10-16T04:00:12;79.47;;;49.00;;
38787;SDS011;24536;45.488;12.238;2022-10-16T04:02:38;72.72;;;44.35;;
38787;SDS011;24536;45.488;12.238;2022-10-16T04:05:05;69.95;;;45.30;;
38787;SDS011;24536;45.488;12.238;2022-10-16T04:07:31;82.88;;;49.80;;
38787;SDS011;24536;45.488;12.238;2022-10-16T04:09:56;80.72;;;46.38;;
38787;SDS011;24536;45.488;12.238;2022-10-16T04:12:24;68.30;;;42.30;;
38787;SDS011;24536;45.488;12.238;2022-10-16T04:14:50;72.95;;;46.90;;
38787;SDS011;24536;45.488;12.238;2022-10-16T04:17:15;76.40;;;46.55;;
38787;SDS011;24536;45.488;12.238;2022-10-16T04:19:41;84.53;;;51.92;;
38787;SDS011;24536;45.488;12.238;2022-10-16T04:22:07;76.00;;;47.78;;
38787;SDS011;24536;45.488;12.238;2022-10-16T04:24:33;78.78;;;48.83;;
38787;SDS011;24536;45.488;12.238;2022-10-16T04:26:58;78.93;;;49.08;;
38787;SDS011;24536;45.488;12.238;2022-10-16T04:29:24;67.50;;;43.95;;
38787;SDS011;24536;45.488;12.238;2022-10-16T04:31:50;74.65;;;46.10;;
38787;SDS011;24536;45.488;12.238;2022-10-16T04:34:16;80.25;;;49.55;;
38787;SDS011;24536;45.488;12.238;2022-10-16T04:36:41;69.32;;;43.92;;
38787;SDS011;24536;45.488;12.238;2022-10-16T04:39:07;77.68;;;49.53;;
38787;SDS011;24536;45.488;12.238;2022-10-16T04:41:33;77.95;;;48.22;;
38787;SDS011;24536;45.488;12.238;2022-10-16T04:43:58;71.75;;;47.60;;
38787;SDS011;24536;45.488;12.238;2022-10-16T04:46:24;74.13;;;46.30;;
38787;SDS011;24536;45.488;12.238;2022-10-16T04:48:50;78.32;;;49.63;;
38787;SDS011;24536;45.488;12.238;2022-10-16T04:51:16;85.60;;;51.10;;
38787;SDS011;24536;45.488;12.238;2022-10-16T04:53:41;82.43;;;49.63;;
38787;SDS011;24536;45.488;12.238;2022-10-16T04:56:07;94.03;;;54.58;;
38787;SDS011;24536;45.488;12.238;2022-10-16T04:58:33;84.10;;;52.45;;
38787;SDS011;24536;45.488;12.238;2022-10-16T05:00:58;89.68;;;52.10;;
38787;SDS011;24536;45.488;12.238;2022-10-16T05:03:24;81.47;;;51.15;;
38787;SDS011;24536;45.488;12.238;2022-10-16T05:05:50;79.25;;;50.47;;
38787;SDS011;24536;45.488;12.238;2022-10-16T05:08:15;84.68;;;52.72;;
38787;SDS011;24536;45.488;12.238;2022-10-16T05:10:42;83.63;;;51.60;;
38787;SDS011;24536;45.488;12.238;2022-10-16T05:13:09;79.25;;;45.50;;
38787;SDS011;24536;45.488;12.238;2022-10-16T05:15:35;75.82;;;48.95;;
38787;SDS011;24536;45.488;12.238;2022-10-16T05:18:01;89.05;;;51.13;;
38787;SDS011;24536;45.488;12.238;2022-10-16T05:20:27;76.30;;;50.33;;
38787;SDS011;24536;45.488;12.238;2022-10-16T05:22:53;72.20;;;44.78;;
38787;SDS011;24536;45.488;12.238;2022-10-16T05:25:18;66.93;;;45.00;;
38787;SDS011;24536;45.488;12.238;2022-10-16T05:27:47;79.80;;;52.15;;
38787;SDS011;24536;45.488;12.238;2022-10-16T05:30:13;85.13;;;53.00;;
38787;SDS011;24536;45.488;12.238;2022-10-16T05:32:39;76.28;;;50.53;;
38787;SDS011;24536;45.488;12.238;2022-10-16T05:35:05;77.72;;;50.35;;
38787;SDS011;24536;45.488;12.238;2022-10-16T05:37:31;71.45;;;48.65;;
38787;SDS011;24536;45.488;12.238;2022-10-16T05:39:57;72.28;;;48.00;;
38787;SDS011;24536;45.488;12.238;2022-10-16T05:42:23;72.65;;;47.28;;
38787;SDS011;24536;45.488;12.238;2022-10-16T05:44:49;70.55;;;45.17;;
38787;SDS011;24536;45.488;12.238;2022-10-16T05:47:14;72.75;;;48.92;;
38787;SDS011;24536;45.488;12.238;2022-10-16T05:49:40;72.10;;;47.53;;
38787;SDS011;24536;45.488;12.238;2022-10-16T05:52:06;73.78;;;48.13;;
38787;SDS011;24536;45.488;12.238;2022-10-16T05:54:31;74.03;;;48.63;;
38787;SDS011;24536;45.488;12.238;2022-10-16T05:56:57;71.57;;;48.60;;
38787;SDS011;24536;45.488;12.238;2022-10-16T05:59:23;72.78;;;47.35;;
38787;SDS011;24536;45.488;12.238;2022-10-16T06:01:48;71.50;;;47.20;;
38787;SDS011;24536;45.488;12.238;2022-10-16T06:04:14;70.72;;;46.88;;
38787;SDS011;24536;45.488;12.238;2022-10-16T06:06:40;70.50;;;45.60;;
38787;SDS011;24536;45.488;12.238;2022-10-16T06:09:06;61.50;;;41.15;;
38787;SDS011;24536;45.488;12.238;2022-10-16T06:11:32;71.15;;;46.55;;
38787;SDS011;24536;45.488;12.238;2022-10-16T06:13:59;62.17;;;43.33;;
38787;SDS011;24536;45.488;12.238;2022-10-16T06:16:27;70.63;;;46.25;;
38787;SDS011;24536;45.488;12.238;2022-10-16T06:18:54;57.60;;;40.30;;
38787;SDS011;24536;45.488;12.238;2022-10-16T06:21:22;65.00;;;44.33;;
38787;SDS011;24536;45.488;12.238;2022-10-16T06:23:53;73.35;;;43.90;;
38787;SDS011;24536;45.488;12.238;2022-10-16T06:26:21;69.88;;;45.72;;
38787;SDS011;24536;45.488;12.238;2022-10-16T06:28:48;67.63;;;44.55;;
38787;SDS011;24536;45.488;12.238;2022-10-16T06:31:15;58.70;;;40.28;;
38787;SDS011;24536;45.488;12.238;2022-10-16T06:33:42;64.30;;;43.72;;
38787;SDS011;24536;45.488;12.238;2022-10-16T06:36:12;72.28;;;45.13;;
38787;SDS011;24536;45.488;12.238;2022-10-16T06:38:40;61.80;;;44.83;;
38787;SDS011;24536;45.488;12.238;2022-10-16T06:41:07;59.75;;;42.33;;
38787;SDS011;24536;45.488;12.238;2022-10-16T06:43:34;55.40;;;37.28;;
38787;SDS011;24536;45.488;12.238;2022-10-16T06:46:00;54.00;;;38.10;;
38787;SDS011;24536;45.488;12.238;2022-10-16T06:48:28;64.05;;;42.65;;
38787;SDS011;24536;45.488;12.238;2022-10-16T06:53:29;59.20;;;40.15;;
38787;SDS011;24536;45.488;12.238;2022-10-16T06:55:57;61.10;;;43.05;;
38787;SDS011;24536;45.488;12.238;2022-10-16T06:58:23;58.13;;;41.10;;
38787;SDS011;24536;45.488;12.238;2022-10-16T07:00:54;60.63;;;38.40;;
38787;SDS011;24536;45.488;12.238;2022-10-16T07:03:21;62.15;;;40.90;;
38787;SDS011;24536;45.488;12.238;2022-10-16T07:05:47;56.35;;;38.30;;
38787;SDS011;24536;45.488;12.238;2022-10-16T07:08:13;61.42;;;38.58;;
38787;SDS011;24536;45.488;12.238;2022-10-16T07:10:39;56.83;;;37.58;;
38787;SDS011;24536;45.488;12.238;2022-10-16T07:13:04;64.13;;;43.67;;
38787;SDS011;24536;45.488;12.238;2022-10-16T07:15:32;55.30;;;40.45;;
38787;SDS011;24536;45.488;12.238;2022-10-16T07:17:59;60.58;;;42.10;;
38787;SDS011;24536;45.488;12.238;2022-10-16T07:20:25;55.03;;;36.38;;
38787;SDS011;24536;45.488;12.238;2022-10-16T07:22:51;50.75;;;37.70;;
38787;SDS011;24536;45.488;12.238;2022-10-16T07:25:17;53.65;;;39.25;;
38787;SDS011;24536;45.488;12.238;2022-10-16T07:27:43;50.72;;;35.95;;
38787;SDS011;24536;45.488;12.238;2022-10-16T07:30:09;49.35;;;36.55;;
38787;SDS011;24536;45.488;12.238;2022-10-16T07:32:35;56.58;;;39.03;;
38787;SDS011;24536;45.488;12.238;2022-10-16T07:35:00;55.92;;;36.90;;
38787;SDS011;24536;45.488;12.238;2022-10-16T07:37:26;50.60;;;35.17;;
38787;SDS011;24536;45.488;12.238;2022-10-16T07:39:52;50.28;;;34.60;;
38787;SDS011;24536;45.488;12.238;2022-10-16T07:42:18;52.75;;;34.75;;
38787;SDS011;24536;45.488;12.238;2022-10-16T07:44:45;59.45;;;39.20;;
38787;SDS011;24536;45.488;12.238;2022-10-16T07:47:10;51.38;;;37.83;;
38787;SDS011;24536;45.488;12.238;2022-10-16T07:49:36;51.05;;;36.42;;
38787;SDS011;24536;45.488;12.238;2022-10-16T07:52:02;53.40;;;35.50;;
38787;SDS011;24536;45.488;12.238;2022-10-16T07:54:28;56.55;;;40.00;;
38787;SDS011;24536;45.488;12.238;2022-10-16T07:56:53;54.17;;;37.63;;
38787;SDS011;24536;45.488;12.238;2022-10-16T07:59:19;47.80;;;34.25;;
38787;SDS011;24536;45.488;12.238;2022-10-16T08:01:45;56.42;;;38.58;;
38787;SDS011;24536;45.488;12.238;2022-10-16T08:04:11;52.35;;;33.88;;
38787;SDS011;24536;45.488;12.238;2022-10-16T08:06:37;50.80;;;35.47;;
38787;SDS011;24536;45.488;12.238;2022-10-16T08:09:05;59.45;;;41.15;;
38787;SDS011;24536;45.488;12.238;2022-10-16T08:11:31;58.28;;;40.95;;
38787;SDS011;24536;45.488;12.238;2022-10-16T08:13:57;53.97;;;39.03;;
38787;SDS011;24536;45.488;12.238;2022-10-16T08:16:23;63.63;;;41.40;;
38787;SDS011;24536;45.488;12.238;2022-10-16T08:18:48;53.17;;;37.03;;
38787;SDS011;24536;45.488;12.238;2022-10-16T08:21:20;49.80;;;35.38;;
38787;SDS011;24536;45.488;12.238;2022-10-16T08:23:48;46.35;;;33.00;;
38787;SDS011;24536;45.488;12.238;2022-10-16T08:26:14;47.85;;;32.13;;
38787;SDS011;24536;45.488;12.238;2022-10-16T08:28:41;39.90;;;30.42;;
38787;SDS011;24536;45.488;12.238;2022-10-16T08:33:36;45.55;;;33.08;;
38787;SDS011;24536;45.488;12.238;2022-10-16T08:36:03;47.67;;;34.88;;
38787;SDS011;24536;45.488;12.238;2022-10-16T08:38:30;54.38;;;36.70;;
38787;SDS011;24536;45.488;12.238;2022-10-16T08:41:01;52.35;;;35.83;;
38787;SDS011;24536;45.488;12.238;2022-10-16T08:43:43;50.85;;;34.63;;
38787;SDS011;24536;45.488;12.238;2022-10-16T08:49:11;43.47;;;31.48;;
38787;SDS011;24536;45.488;12.238;2022-10-16T08:57:15;44.75;;;31.48;;
38787;SDS011;24536;45.488;12.238;2022-10-16T08:59:43;45.72;;;32.03;;
38787;SDS011;24536;45.488;12.238;2022-10-16T09:13:18;48.00;;;32.95;;
38787;SDS011;24536;45.488;12.238;2022-10-16T09:18:59;41.78;;;31.20;;
38787;SDS011;24536;45.488;12.238;2022-10-16T09:21:35;48.92;;;32.67;;
38787;SDS011;24536;45.488;12.238;2022-10-16T09:24:14;48.92;;;34.55;;
38787;SDS011;24536;45.488;12.238;2022-10-16T09:26:41;46.22;;;33.47;;
38787;SDS011;24536;45.488;12.238;2022-10-16T09:29:10;50.47;;;35.60;;
38787;SDS011;24536;45.488;12.238;2022-10-16T09:31:38;43.78;;;29.65;;
38787;SDS011;24536;45.488;12.238;2022-10-16T09:34:04;42.35;;;29.67;;
38787;SDS011;24536;45.488;12.238;2022-10-16T09:36:40;46.53;;;33.72;;
38787;SDS011;24536;45.488;12.238;2022-10-16T09:39:09;39.22;;;28.85;;
38787;SDS011;24536;45.488;12.238;2022-10-16T09:41:40;39.22;;;28.63;;
38787;SDS011;24536;45.488;12.238;2022-10-16T09:44:19;38.72;;;27.73;;
38787;SDS011;24536;45.488;12.238;2022-10-16T09:47:00;37.85;;;26.98;;
38787;SDS011;24536;45.488;12.238;2022-10-16T09:49:28;40.17;;;27.83;;
38787;SDS011;24536;45.488;12.238;2022-10-16T09:52:09;40.35;;;27.60;;
38787;SDS011;24536;45.488;12.238;2022-10-16T09:54:37;40.85;;;30.33;;
38787;SDS011;24536;45.488;12.238;2022-10-16T09:59:47;38.20;;;27.77;;
38787;SDS011;24536;45.488;12.238;2022-10-16T10:04:50;39.25;;;26.80;;
38787;SDS011;24536;45.488;12.238;2022-10-16T10:07:25;40.10;;;28.30;;
38787;SDS011;24536;45.488;12.238;2022-10-16T10:09:53;46.92;;;32.97;;
38787;SDS011;24536;45.488;12.238;2022-10-16T10:12:28;38.67;;;25.35;;
38787;SDS011;24536;45.488;12.238;2022-10-16T10:14:57;38.72;;;28.63;;
38787;SDS011;24536;45.488;12.238;2022-10-16T10:17:29;37.60;;;26.15;;
38787;SDS011;24536;45.488;12.238;2022-10-16T10:19:59;34.88;;;25.42;;
38787;SDS011;24536;45.488;12.238;2022-10-16T10:30:42;30.83;;;24.13;;
38787;SDS011;24536;45.488;12.238;2022-10-16T10:38:45;32.20;;;24.85;;
38787;SDS011;24536;45.488;12.238;2022-10-16T10:47:27;29.73;;;21.63;;
38787;SDS011;24536;45.488;12.238;2022-10-16T10:58:23;24.83;;;20.80;;
38787;SDS011;24536;45.488;12.238;2022-10-16T11:08:50;27.13;;;21.60;;
38787;SDS011;24536;45.488;12.238;2022-10-16T11:11:27;23.20;;;19.40;;
38787;SDS011;24536;45.488;12.238;2022-10-16T11:16:43;29.60;;;22.27;;
38787;SDS011;24536;45.488;12.238;2022-10-16T11:27:27;25.52;;;21.42;;
38787;SDS011;24536;45.488;12.238;2022-10-16T11:30:05;33.60;;;26.17;;
38787;SDS011;24536;45.488;12.238;2022-10-16T11:35:38;29.63;;;24.70;;
38787;SDS011;24536;45.488;12.238;2022-10-16T11:38:12;23.95;;;19.70;;
38787;SDS011;24536;45.488;12.238;2022-10-16T11:40:53;27.70;;;21.63;;
38787;SDS011;24536;45.488;12.238;2022-10-16T11:43:34;28.23;;;21.27;;
38787;SDS011;24536;45.488;12.238;2022-10-16T11:46:15;29.98;;;22.23;;
38787;SDS011;24536;45.488;12.238;2022-10-16T11:57:12;23.80;;;19.35;;
38787;SDS011;24536;45.488;12.238;2022-10-16T12:02:43;24.17;;;20.80;;
38787;SDS011;24536;45.488;12.238;2022-10-16T12:05:33;29.98;;;21.33;;
38787;SDS011;24536;45.488;12.238;2022-10-16T12:08:19;26.20;;;21.70;;
38787;SDS011;24536;45.488;12.238;2022-10-16T12:10:47;27.40;;;21.38;;
38787;SDS011;24536;45.488;12.238;2022-10-16T12:18:41;29.35;;;23.60;;
38787;SDS011;24536;45.488;12.238;2022-10-16T12:21:09;32.20;;;24.10;;
38787;SDS011;24536;45.488;12.238;2022-10-16T12:23:49;27.35;;;22.42;;
38787;SDS011;24536;45.488;12.238;2022-10-16T12:26:28;24.50;;;20.90;;
38787;SDS011;24536;45.488;12.238;2022-10-16T12:29:09;22.88;;;19.35;;
38787;SDS011;24536;45.488;12.238;2022-10-16T12:31:47;23.00;;;19.65;;
38787;SDS011;24536;45.488;12.238;2022-10-16T12:37:24;22.33;;;19.45;;
38787;SDS011;24536;45.488;12.238;2022-10-16T12:39:54;24.98;;;21.60;;
38787;SDS011;24536;45.488;12.238;2022-10-16T12:44:55;25.27;;;19.92;;
38787;SDS011;24536;45.488;12.238;2022-10-16T12:49:56;28.13;;;19.95;;
38787;SDS011;24536;45.488;12.238;2022-10-16T12:52:45;24.00;;;21.15;;
38787;SDS011;24536;45.488;12.238;2022-10-16T12:55:14;25.52;;;18.88;;
38787;SDS011;24536;45.488;12.238;2022-10-16T13:03:23;23.55;;;19.38;;
38787;SDS011;24536;45.488;12.238;2022-10-16T13:16:44;32.50;;;19.98;;
38787;SDS011;24536;45.488;12.238;2022-10-16T13:25:02;23.50;;;21.00;;
38787;SDS011;24536;45.488;12.238;2022-10-16T13:27:50;22.25;;;18.75;;
38787;SDS011;24536;45.488;12.238;2022-10-16T13:30:29;20.50;;;18.30;;
38787;SDS011;24536;45.488;12.238;2022-10-16T13:33:00;23.63;;;19.38;;
38787;SDS011;24536;45.488;12.238;2022-10-16T13:35:30;23.52;;;18.83;;
38787;SDS011;24536;45.488;12.238;2022-10-16T13:41:37;21.38;;;17.98;;
38787;SDS011;24536;45.488;12.238;2022-10-16T13:44:03;21.85;;;18.83;;
38787;SDS011;24536;45.488;12.238;2022-10-16T13:46:30;20.80;;;17.65;;
38787;SDS011;24536;45.488;12.238;2022-10-16T13:49:20;21.73;;;19.02;;
38787;SDS011;24536;45.488;12.238;2022-10-16T13:51:54;21.80;;;19.13;;
38787;SDS011;24536;45.488;12.238;2022-10-16T13:54:25;22.00;;;18.73;;
38787;SDS011;24536;45.488;12.238;2022-10-16T13:56:53;24.20;;;19.00;;
38787;SDS011;24536;45.488;12.238;2022-10-16T13:59:26;23.92;;;17.88;;
38787;SDS011;24536;45.488;12.238;2022-10-16T14:01:57;26.10;;;20.55;;
38787;SDS011;24536;45.488;12.238;2022-10-16T14:04:25;26.77;;;22.70;;
38787;SDS011;24536;45.488;12.238;2022-10-16T14:06:56;26.30;;;23.17;;
38787;SDS011;24536;45.488;12.238;2022-10-16T14:11:56;27.38;;;23.05;;
38787;SDS011;24536;45.488;12.238;2022-10-16T14:14:25;27.63;;;21.65;;
38787;SDS011;24536;45.488;12.238;2022-10-16T14:16:57;28.75;;;22.83;;
38787;SDS011;24536;45.488;12.238;2022-10-16T14:19:26;21.35;;;19.05;;
38787;SDS011;24536;45.488;12.238;2022-10-16T14:21:54;27.33;;;23.55;;
38787;SDS011;24536;45.488;12.238;2022-10-16T14:26:57;26.73;;;20.60;;
38787;SDS011;24536;45.488;12.238;2022-10-16T14:29:24;25.58;;;21.30;;
38787;SDS011;24536;45.488;12.238;2022-10-16T14:31:58;24.98;;;21.38;;
38787;SDS011;24536;45.488;12.238;2022-10-16T14:34:26;23.13;;;20.13;;
38787;SDS011;24536;45.488;12.238;2022-10-16T14:36:55;24.80;;;20.30;;
38787;SDS011;24536;45.488;12.238;2022-10-16T14:39:22;24.90;;;21.45;;
38787;SDS011;24536;45.488;12.238;2022-10-16T14:41:54;24.48;;;20.13;;
38787;SDS011;24536;45.488;12.238;2022-10-16T14:44:22;27.13;;;20.83;;
38787;SDS011;24536;45.488;12.238;2022-10-16T14:46:54;24.25;;;20.15;;
38787;SDS011;24536;45.488;12.238;2022-10-16T14:49:20;24.95;;;20.48;;
38787;SDS011;24536;45.488;12.238;2022-10-16T14:51:48;26.30;;;20.35;;
38787;SDS011;24536;45.488;12.238;2022-10-16T14:54:15;25.05;;;20.50;;
38787;SDS011;24536;45.488;12.238;2022-10-16T14:56:46;22.85;;;20.35;;
38787;SDS011;24536;45.488;12.238;2022-10-16T14:59:16;24.13;;;19.70;;
38787;SDS011;24536;45.488;12.238;2022-10-16T15:01:45;23.90;;;20.50;;
38787;SDS011;24536;45.488;12.238;2022-10-16T15:04:11;26.42;;;20.63;;
38787;SDS011;24536;45.488;12.238;2022-10-16T15:06:38;26.85;;;21.30;;
38787;SDS011;24536;45.488;12.238;2022-10-16T15:09:03;25.92;;;22.23;;
38787;SDS011;24536;45.488;12.238;2022-10-16T15:11:29;26.85;;;21.10;;
38787;SDS011;24536;45.488;12.238;2022-10-16T15:13:57;24.52;;;20.15;;
38787;SDS011;24536;45.488;12.238;2022-10-16T15:16:23;24.42;;;21.70;;
38787;SDS011;24536;45.488;12.238;2022-10-16T15:18:49;26.42;;;22.63;;
38787;SDS011;24536;45.488;12.238;2022-10-16T15:21:29;26.75;;;23.85;;
38787;SDS011;24536;45.488;12.238;2022-10-16T15:23:57;26.77;;;22.80;;
38787;SDS011;24536;45.488;12.238;2022-10-16T15:26:24;29.17;;;24.45;;
38787;SDS011;24536;45.488;12.238;2022-10-16T15:28:51;30.95;;;23.75;;
38787;SDS011;24536;45.488;12.238;2022-10-16T15:31:17;28.08;;;24.27;;
38787;SDS011;24536;45.488;12.238;2022-10-16T15:33:42;28.48;;;24.13;;
38787;SDS011;24536;45.488;12.238;2022-10-16T15:36:08;34.50;;;27.23;;
38787;SDS011;24536;45.488;12.238;2022-10-16T15:38:34;26.40;;;22.92;;
38787;SDS011;24536;45.488;12.238;2022-10-16T15:41:00;26.40;;;22.67;;
38787;SDS011;24536;45.488;12.238;2022-10-16T15:43:26;27.65;;;24.27;;
38787;SDS011;24536;45.488;12.238;2022-10-16T15:46:02;31.63;;;26.85;;
38787;SDS011;24536;45.488;12.238;2022-10-16T15:48:30;27.05;;;23.50;;
38787;SDS011;24536;45.488;12.238;2022-10-16T15:50:57;29.33;;;24.33;;
38787;SDS011;24536;45.488;12.238;2022-10-16T15:53:23;25.67;;;22.48;;
38787;SDS011;24536;45.488;12.238;2022-10-16T15:55:49;28.80;;;24.08;;
38787;SDS011;24536;45.488;12.238;2022-10-16T15:58:14;30.88;;;24.33;;
38787;SDS011;24536;45.488;12.238;2022-10-16T16:00:40;31.15;;;25.17;;
38787;SDS011;24536;45.488;12.238;2022-10-16T16:03:06;29.52;;;25.08;;
38787;SDS011;24536;45.488;12.238;2022-10-16T16:05:31;29.40;;;26.20;;
38787;SDS011;24536;45.488;12.238;2022-10-16T16:07:58;30.55;;;26.55;;
38787;SDS011;24536;45.488;12.238;2022-10-16T16:10:24;29.08;;;24.23;;
38787;SDS011;24536;45.488;12.238;2022-10-16T16:12:50;29.67;;;24.92;;
38787;SDS011;24536;45.488;12.238;2022-10-16T16:15:18;30.83;;;23.77;;
38787;SDS011;24536;45.488;12.238;2022-10-16T16:17:45;30.83;;;24.80;;
38787;SDS011;24536;45.488;12.238;2022-10-16T16:20:11;32.45;;;26.10;;
38787;SDS011;24536;45.488;12.238;2022-10-16T16:22:37;30.05;;;26.40;;
38787;SDS011;24536;45.488;12.238;2022-10-16T16:25:03;28.63;;;25.52;;
38787;SDS011;24536;45.488;12.238;2022-10-16T16:27:29;30.20;;;25.23;;
38787;SDS011;24536;45.488;12.238;2022-10-16T16:29:58;33.63;;;28.87;;
38787;SDS011;24536;45.488;12.238;2022-10-16T16:32:24;32.30;;;26.63;;
38787;SDS011;24536;45.488;12.238;2022-10-16T16:34:50;33.53;;;27.10;;
38787;SDS011;24536;45.488;12.238;2022-10-16T16:37:15;32.22;;;27.17;;
38787;SDS011;24536;45.488;12.238;2022-10-16T16:39:41;35.28;;;27.52;;
38787;SDS011;24536;45.488;12.238;2022-10-16T16:42:07;34.83;;;27.70;;
38787;SDS011;24536;45.488;12.238;2022-10-16T16:44:33;32.88;;;28.05;;
38787;SDS011;24536;45.488;12.238;2022-10-16T16:47:01;35.88;;;28.73;;
38787;SDS011;24536;45.488;12.238;2022-10-16T16:49:27;36.55;;;28.52;;
38787;SDS011;24536;45.488;12.238;2022-10-16T16:51:53;33.63;;;28.50;;
38787;SDS011;24536;45.488;12.238;2022-10-16T16:54:22;35.13;;;27.13;;
38787;SDS011;24536;45.488;12.238;2022-10-16T16:56:48;33.85;;;28.60;;
38787;SDS011;24536;45.488;12.238;2022-10-16T16:59:15;33.33;;;29.23;;